sensor_id;sensor_type;location;lat;lon;timestamp;P1;durP1;ratioP1;P2;durP2;ratioP2
52838;SDS011;39219;53.678;9.856;2023-08-01T00:00:56;4.90;;;2.90;;
52838;SDS011;39219;53.678;9.856;2023-08-01T00:03:22;6.38;;;3.30;;
52838;SDS011;39219;53.678;9.856;2023-08-01T00:05:48;5.10;;;2.97;;
52838;SDS011;39219;53.678;9.856;2023-08-01T00:08:15;4.05;;;2.70;;
52838;SDS011;39219;53.678;9.856;2023-08-01T00:10:41;4.47;;;3.08;;
52838;SDS011;39219;53.678;9.856;2023-08-01T00:13:07;4.22;;;3.20;;
52838;SDS011;39219;53.678;9.856;2023-08-01T00:15:35;4.82;;;3.20;;
52838;SDS011;39219;53.678;9.856;2023-08-01T00:18:01;5.53;;;3.17;;
52838;SDS011;39219;53.678;9.856;2023-08-01T00:20:28;6.53;;;3.50;;
52838;SDS011;39219;53.678;9.856;2023-08-01T00:22:54;4.32;;;3.05;;
52838;SDS011;39219;53.678;9.856;2023-08-01T00:25:21;5.40;;;2.90;;
52838;SDS011;39219;53.678;9.856;2023-08-01T00:27:47;5.25;;;3.10;;
52838;SDS011;39219;53.678;9.856;2023-08-01T00:30:13;5.50;;;2.95;;
52838;SDS011;39219;53.678;9.856;2023-08-01T00:32:41;5.57;;;3.10;;
52838;SDS011;39219;53.678;9.856;2023-08-01T00:35:08;4.68;;;2.75;;
52838;SDS011;39219;53.678;9.856;2023-08-01T00:37:34;3.72;;;2.40;;
52838;SDS011;39219;53.678;9.856;2023-08-01T00:40:00;3.95;;;2.60;;
52838;SDS011;39219;53.678;9.856;2023-08-01T00:42:27;5.30;;;2.38;;
52838;SDS011;39219;53.678;9.856;2023-08-01T00:44:53;6.40;;;2.70;;
52838;SDS011;39219;53.678;9.856;2023-08-01T00:47:19;4.40;;;2.85;;
52838;SDS011;39219;53.678;9.856;2023-08-01T00:49:47;4.32;;;2.80;;
52838;SDS011;39219;53.678;9.856;2023-08-01T00:52:13;5.25;;;2.83;;
52838;SDS011;39219;53.678;9.856;2023-08-01T00:54:39;3.85;;;2.80;;
52838;SDS011;39219;53.678;9.856;2023-08-01T00:57:06;4.53;;;2.70;;
52838;SDS011;39219;53.678;9.856;2023-08-01T00:59:32;5.25;;;3.03;;
52838;SDS011;39219;53.678;9.856;2023-08-01T01:01:59;4.88;;;3.03;;
52838;SDS011;39219;53.678;9.856;2023-08-01T01:04:26;5.82;;;3.17;;
52838;SDS011;39219;53.678;9.856;2023-08-01T01:06:55;5.63;;;3.10;;
52838;SDS011;39219;53.678;9.856;2023-08-01T01:09:23;6.68;;;3.85;;
52838;SDS011;39219;53.678;9.856;2023-08-01T01:11:49;5.97;;;3.45;;
52838;SDS011;39219;53.678;9.856;2023-08-01T01:14:15;6.43;;;3.50;;
52838;SDS011;39219;53.678;9.856;2023-08-01T01:16:42;6.97;;;3.63;;
52838;SDS011;39219;53.678;9.856;2023-08-01T01:19:09;5.90;;;3.58;;
52838;SDS011;39219;53.678;9.856;2023-08-01T01:24:39;6.20;;;2.90;;
52838;SDS011;39219;53.678;9.856;2023-08-01T01:27:06;5.65;;;2.85;;
52838;SDS011;39219;53.678;9.856;2023-08-01T01:29:34;3.75;;;2.80;;
52838;SDS011;39219;53.678;9.856;2023-08-01T01:32:00;4.85;;;2.78;;
52838;SDS011;39219;53.678;9.856;2023-08-01T01:34:27;5.07;;;3.38;;
52838;SDS011;39219;53.678;9.856;2023-08-01T01:36:53;5.38;;;3.40;;
52838;SDS011;39219;53.678;9.856;2023-08-01T01:39:20;6.43;;;3.90;;
52838;SDS011;39219;53.678;9.856;2023-08-01T01:41:47;8.25;;;4.40;;
52838;SDS011;39219;53.678;9.856;2023-08-01T01:44:13;8.50;;;4.32;;
52838;SDS011;39219;53.678;9.856;2023-08-01T01:46:40;7.18;;;4.70;;
52838;SDS011;39219;53.678;9.856;2023-08-01T01:49:06;8.18;;;4.80;;
52838;SDS011;39219;53.678;9.856;2023-08-01T01:51:33;10.30;;;5.00;;
52838;SDS011;39219;53.678;9.856;2023-08-01T01:53:59;9.13;;;5.20;;
52838;SDS011;39219;53.678;9.856;2023-08-01T01:56:25;11.05;;;5.60;;
52838;SDS011;39219;53.678;9.856;2023-08-01T01:58:53;8.63;;;5.47;;
52838;SDS011;39219;53.678;9.856;2023-08-01T02:01:19;9.70;;;5.65;;
52838;SDS011;39219;53.678;9.856;2023-08-01T02:03:45;9.45;;;5.80;;
52838;SDS011;39219;53.678;9.856;2023-08-01T02:06:11;10.73;;;6.35;;
52838;SDS011;39219;53.678;9.856;2023-08-01T02:08:38;11.65;;;6.75;;
52838;SDS011;39219;53.678;9.856;2023-08-01T02:11:04;12.07;;;6.90;;
52838;SDS011;39219;53.678;9.856;2023-08-01T02:13:32;11.48;;;7.38;;
52838;SDS011;39219;53.678;9.856;2023-08-01T02:15:59;16.13;;;8.07;;
52838;SDS011;39219;53.678;9.856;2023-08-01T02:18:25;13.93;;;8.15;;
52838;SDS011;39219;53.678;9.856;2023-08-01T02:20:52;17.27;;;9.13;;
52838;SDS011;39219;53.678;9.856;2023-08-01T02:23:18;16.13;;;9.13;;
52838;SDS011;39219;53.678;9.856;2023-08-01T02:25:44;17.05;;;9.70;;
52838;SDS011;39219;53.678;9.856;2023-08-01T02:28:10;16.67;;;9.85;;
52838;SDS011;39219;53.678;9.856;2023-08-01T02:30:37;19.50;;;10.20;;
52838;SDS011;39219;53.678;9.856;2023-08-01T02:33:05;18.55;;;10.70;;
52838;SDS011;39219;53.678;9.856;2023-08-01T02:35:31;17.42;;;10.38;;
52838;SDS011;39219;53.678;9.856;2023-08-01T02:37:58;19.05;;;11.55;;
52838;SDS011;39219;53.678;9.856;2023-08-01T02:40:24;19.30;;;11.30;;
52838;SDS011;39219;53.678;9.856;2023-08-01T02:42:51;21.42;;;11.77;;
52838;SDS011;39219;53.678;9.856;2023-08-01T02:45:18;22.23;;;12.23;;
52838;SDS011;39219;53.678;9.856;2023-08-01T02:47:44;24.10;;;12.88;;
52838;SDS011;39219;53.678;9.856;2023-08-01T02:50:12;23.77;;;13.05;;
52838;SDS011;39219;53.678;9.856;2023-08-01T02:52:38;24.65;;;13.18;;
52838;SDS011;39219;53.678;9.856;2023-08-01T02:55:05;24.77;;;13.90;;
52838;SDS011;39219;53.678;9.856;2023-08-01T02:57:31;25.05;;;13.05;;
52838;SDS011;39219;53.678;9.856;2023-08-01T02:59:57;26.15;;;13.80;;
52838;SDS011;39219;53.678;9.856;2023-08-01T03:02:24;26.33;;;14.35;;
52838;SDS011;39219;53.678;9.856;2023-08-01T03:04:52;24.40;;;14.25;;
52838;SDS011;39219;53.678;9.856;2023-08-01T03:07:20;26.27;;;14.35;;
52838;SDS011;39219;53.678;9.856;2023-08-01T03:09:46;23.90;;;14.43;;
52838;SDS011;39219;53.678;9.856;2023-08-01T03:12:12;28.08;;;14.65;;
52838;SDS011;39219;53.678;9.856;2023-08-01T03:14:39;26.77;;;14.43;;
52838;SDS011;39219;53.678;9.856;2023-08-01T03:17:06;25.13;;;14.65;;
52838;SDS011;39219;53.678;9.856;2023-08-01T03:19:33;25.40;;;14.20;;
52838;SDS011;39219;53.678;9.856;2023-08-01T03:40:18;28.33;;;15.15;;
52838;SDS011;39219;53.678;9.856;2023-08-01T03:42:45;28.33;;;14.88;;
52838;SDS011;39219;53.678;9.856;2023-08-01T03:45:11;26.13;;;15.05;;
52838;SDS011;39219;53.678;9.856;2023-08-01T03:47:37;29.15;;;15.88;;
52838;SDS011;39219;53.678;9.856;2023-08-01T03:50:04;26.00;;;14.88;;
52838;SDS011;39219;53.678;9.856;2023-08-01T03:52:30;29.65;;;15.25;;
52838;SDS011;39219;53.678;9.856;2023-08-01T03:54:57;26.48;;;15.52;;
52838;SDS011;39219;53.678;9.856;2023-08-01T03:57:24;28.23;;;15.48;;
52838;SDS011;39219;53.678;9.856;2023-08-01T03:59:51;26.73;;;15.45;;
52838;SDS011;39219;53.678;9.856;2023-08-01T04:02:17;27.67;;;15.07;;
52838;SDS011;39219;53.678;9.856;2023-08-01T04:04:44;29.35;;;15.30;;
52838;SDS011;39219;53.678;9.856;2023-08-01T04:07:10;29.05;;;15.60;;
52838;SDS011;39219;53.678;9.856;2023-08-01T04:09:36;28.60;;;16.00;;
52838;SDS011;39219;53.678;9.856;2023-08-01T04:12:04;27.92;;;15.77;;
52838;SDS011;39219;53.678;9.856;2023-08-01T04:14:32;28.20;;;15.70;;
52838;SDS011;39219;53.678;9.856;2023-08-01T04:16:59;29.23;;;15.48;;
52838;SDS011;39219;53.678;9.856;2023-08-01T04:19:25;27.50;;;15.57;;
52838;SDS011;39219;53.678;9.856;2023-08-01T04:21:51;26.83;;;15.10;;
52838;SDS011;39219;53.678;9.856;2023-08-01T04:24:18;26.45;;;15.35;;
52838;SDS011;39219;53.678;9.856;2023-08-01T04:26:44;28.25;;;15.85;;
52838;SDS011;39219;53.678;9.856;2023-08-01T04:29:10;31.30;;;15.25;;
52838;SDS011;39219;53.678;9.856;2023-08-01T04:31:41;27.63;;;15.27;;
52838;SDS011;39219;53.678;9.856;2023-08-01T04:34:08;28.40;;;15.75;;
52838;SDS011;39219;53.678;9.856;2023-08-01T04:36:34;25.13;;;15.82;;
52838;SDS011;39219;53.678;9.856;2023-08-01T04:39:00;28.25;;;15.27;;
52838;SDS011;39219;53.678;9.856;2023-08-01T04:41:26;29.58;;;15.52;;
52838;SDS011;39219;53.678;9.856;2023-08-01T04:43:53;28.40;;;15.13;;
52838;SDS011;39219;53.678;9.856;2023-08-01T04:46:19;26.23;;;14.80;;
52838;SDS011;39219;53.678;9.856;2023-08-01T04:48:47;26.48;;;14.88;;
52838;SDS011;39219;53.678;9.856;2023-08-01T04:51:13;27.38;;;15.90;;
52838;SDS011;39219;53.678;9.856;2023-08-01T04:53:39;24.40;;;15.05;;
52838;SDS011;39219;53.678;9.856;2023-08-01T04:56:05;27.52;;;14.77;;
52838;SDS011;39219;53.678;9.856;2023-08-01T04:58:32;23.90;;;14.45;;
52838;SDS011;39219;53.678;9.856;2023-08-01T05:00:58;24.90;;;14.40;;
52838;SDS011;39219;53.678;9.856;2023-08-01T05:03:24;25.27;;;14.38;;
52838;SDS011;39219;53.678;9.856;2023-08-01T05:05:52;24.33;;;13.68;;
52838;SDS011;39219;53.678;9.856;2023-08-01T05:08:18;24.10;;;14.38;;
52838;SDS011;39219;53.678;9.856;2023-08-01T05:10:44;24.10;;;13.70;;
52838;SDS011;39219;53.678;9.856;2023-08-01T05:13:11;23.40;;;13.60;;
52838;SDS011;39219;53.678;9.856;2023-08-01T05:15:37;24.30;;;13.95;;
52838;SDS011;39219;53.678;9.856;2023-08-01T05:18:03;23.63;;;14.13;;
52838;SDS011;39219;53.678;9.856;2023-08-01T05:20:30;22.90;;;13.35;;
52838;SDS011;39219;53.678;9.856;2023-08-01T05:22:59;22.75;;;13.13;;
52838;SDS011;39219;53.678;9.856;2023-08-01T05:25:26;22.70;;;13.38;;
52838;SDS011;39219;53.678;9.856;2023-08-01T05:27:52;23.13;;;12.60;;
52838;SDS011;39219;53.678;9.856;2023-08-01T05:30:18;21.80;;;13.13;;
52838;SDS011;39219;53.678;9.856;2023-08-01T05:32:45;21.23;;;12.43;;
52838;SDS011;39219;53.678;9.856;2023-08-01T05:35:12;21.75;;;11.85;;
52838;SDS011;39219;53.678;9.856;2023-08-01T05:37:38;19.98;;;11.88;;
52838;SDS011;39219;53.678;9.856;2023-08-01T05:40:06;21.42;;;11.38;;
52838;SDS011;39219;53.678;9.856;2023-08-01T05:42:33;19.88;;;10.82;;
52838;SDS011;39219;53.678;9.856;2023-08-01T05:44:59;18.42;;;10.27;;
52838;SDS011;39219;53.678;9.856;2023-08-01T05:47:25;18.42;;;9.70;;
52838;SDS011;39219;53.678;9.856;2023-08-01T05:49:52;16.85;;;9.68;;
52838;SDS011;39219;53.678;9.856;2023-08-01T05:52:18;18.48;;;9.60;;
52838;SDS011;39219;53.678;9.856;2023-08-01T05:54:44;17.92;;;9.60;;
52838;SDS011;39219;53.678;9.856;2023-08-01T05:57:12;18.58;;;9.38;;
52838;SDS011;39219;53.678;9.856;2023-08-01T05:59:38;15.55;;;9.32;;
52838;SDS011;39219;53.678;9.856;2023-08-01T06:02:05;17.05;;;9.10;;
52838;SDS011;39219;53.678;9.856;2023-08-01T06:04:31;17.52;;;8.15;;
52838;SDS011;39219;53.678;9.856;2023-08-01T06:06:58;15.77;;;8.38;;
52838;SDS011;39219;53.678;9.856;2023-08-01T06:09:24;15.77;;;8.23;;
52838;SDS011;39219;53.678;9.856;2023-08-01T06:11:51;12.88;;;7.50;;
52838;SDS011;39219;53.678;9.856;2023-08-01T06:14:18;14.38;;;8.40;;
52838;SDS011;39219;53.678;9.856;2023-08-01T06:16:45;14.43;;;7.70;;
52838;SDS011;39219;53.678;9.856;2023-08-01T06:19:11;13.93;;;7.72;;
52838;SDS011;39219;53.678;9.856;2023-08-01T06:21:37;13.90;;;7.10;;
52838;SDS011;39219;53.678;9.856;2023-08-01T06:24:03;11.45;;;5.60;;
52838;SDS011;39219;53.678;9.856;2023-08-01T06:26:30;9.85;;;5.32;;
52838;SDS011;39219;53.678;9.856;2023-08-01T06:28:56;9.65;;;5.28;;
52838;SDS011;39219;53.678;9.856;2023-08-01T06:31:24;11.57;;;5.28;;
52838;SDS011;39219;53.678;9.856;2023-08-01T06:33:50;11.43;;;5.75;;
52838;SDS011;39219;53.678;9.856;2023-08-01T06:36:16;10.02;;;5.40;;
52838;SDS011;39219;53.678;9.856;2023-08-01T06:38:43;11.75;;;5.53;;
52838;SDS011;39219;53.678;9.856;2023-08-01T06:41:09;10.18;;;5.40;;
52838;SDS011;39219;53.678;9.856;2023-08-01T06:43:36;10.27;;;5.72;;
52838;SDS011;39219;53.678;9.856;2023-08-01T06:46:03;12.27;;;5.85;;
52838;SDS011;39219;53.678;9.856;2023-08-01T06:48:31;11.07;;;5.40;;
52838;SDS011;39219;53.678;9.856;2023-08-01T06:50:59;9.82;;;5.25;;
52838;SDS011;39219;53.678;9.856;2023-08-01T06:53:25;12.00;;;5.15;;
52838;SDS011;39219;53.678;9.856;2023-08-01T06:55:52;10.35;;;4.85;;
52838;SDS011;39219;53.678;9.856;2023-08-01T06:58:18;10.40;;;5.22;;
52838;SDS011;39219;53.678;9.856;2023-08-01T07:00:44;10.60;;;4.57;;
52838;SDS011;39219;53.678;9.856;2023-08-01T07:03:11;8.68;;;4.65;;
52838;SDS011;39219;53.678;9.856;2023-08-01T07:05:39;9.82;;;4.32;;
52838;SDS011;39219;53.678;9.856;2023-08-01T07:08:05;9.43;;;4.72;;
52838;SDS011;39219;53.678;9.856;2023-08-01T07:10:33;11.10;;;4.80;;
52838;SDS011;39219;53.678;9.856;2023-08-01T07:13:00;8.13;;;4.57;;
52838;SDS011;39219;53.678;9.856;2023-08-01T07:15:28;10.32;;;4.40;;
52838;SDS011;39219;53.678;9.856;2023-08-01T07:17:55;13.57;;;4.80;;
52838;SDS011;39219;53.678;9.856;2023-08-01T07:20:21;11.18;;;4.90;;
52838;SDS011;39219;53.678;9.856;2023-08-01T07:22:49;10.18;;;4.25;;
52838;SDS011;39219;53.678;9.856;2023-08-01T07:25:15;8.98;;;4.72;;
52838;SDS011;39219;53.678;9.856;2023-08-01T07:27:42;8.27;;;4.20;;
52838;SDS011;39219;53.678;9.856;2023-08-01T07:30:09;8.55;;;4.10;;
52838;SDS011;39219;53.678;9.856;2023-08-01T07:32:35;11.98;;;3.92;;
52838;SDS011;39219;53.678;9.856;2023-08-01T07:35:03;8.82;;;4.30;;
52838;SDS011;39219;53.678;9.856;2023-08-01T07:37:29;9.23;;;4.15;;
52838;SDS011;39219;53.678;9.856;2023-08-01T07:39:57;10.10;;;4.47;;
52838;SDS011;39219;53.678;9.856;2023-08-01T07:42:23;8.50;;;4.30;;
52838;SDS011;39219;53.678;9.856;2023-08-01T07:44:50;12.02;;;4.30;;
52838;SDS011;39219;53.678;9.856;2023-08-01T07:47:16;6.93;;;3.67;;
52838;SDS011;39219;53.678;9.856;2023-08-01T07:49:42;9.25;;;4.20;;
52838;SDS011;39219;53.678;9.856;2023-08-01T07:52:09;9.57;;;4.07;;
52838;SDS011;39219;53.678;9.856;2023-08-01T07:54:35;10.20;;;4.03;;
52838;SDS011;39219;53.678;9.856;2023-08-01T07:57:03;10.18;;;4.28;;
52838;SDS011;39219;53.678;9.856;2023-08-01T07:59:29;7.00;;;3.63;;
52838;SDS011;39219;53.678;9.856;2023-08-01T08:01:56;8.75;;;3.80;;
52838;SDS011;39219;53.678;9.856;2023-08-01T08:04:22;10.45;;;3.65;;
52838;SDS011;39219;53.678;9.856;2023-08-01T08:06:48;8.52;;;3.90;;
52838;SDS011;39219;53.678;9.856;2023-08-01T08:09:15;7.60;;;3.88;;
52838;SDS011;39219;53.678;9.856;2023-08-01T08:11:41;7.70;;;4.00;;
52838;SDS011;39219;53.678;9.856;2023-08-01T08:14:09;7.68;;;4.00;;
52838;SDS011;39219;53.678;9.856;2023-08-01T08:16:36;7.75;;;3.95;;
52838;SDS011;39219;53.678;9.856;2023-08-01T08:19:02;9.27;;;4.00;;
52838;SDS011;39219;53.678;9.856;2023-08-01T08:21:29;7.95;;;3.63;;
52838;SDS011;39219;53.678;9.856;2023-08-01T08:23:55;7.10;;;3.35;;
52838;SDS011;39219;53.678;9.856;2023-08-01T08:26:21;6.30;;;3.20;;
52838;SDS011;39219;53.678;9.856;2023-08-01T08:28:48;7.22;;;3.60;;
52838;SDS011;39219;53.678;9.856;2023-08-01T08:31:16;6.97;;;3.17;;
52838;SDS011;39219;53.678;9.856;2023-08-01T08:33:42;7.50;;;3.60;;
52838;SDS011;39219;53.678;9.856;2023-08-01T08:36:09;9.38;;;3.70;;
52838;SDS011;39219;53.678;9.856;2023-08-01T08:38:35;8.15;;;3.70;;
52838;SDS011;39219;53.678;9.856;2023-08-01T08:41:05;8.45;;;3.95;;
52838;SDS011;39219;53.678;9.856;2023-08-01T08:43:32;7.82;;;3.88;;
52838;SDS011;39219;53.678;9.856;2023-08-01T08:45:59;7.15;;;3.67;;
52838;SDS011;39219;53.678;9.856;2023-08-01T08:48:27;7.82;;;3.65;;
52838;SDS011;39219;53.678;9.856;2023-08-01T08:50:54;8.18;;;3.90;;
52838;SDS011;39219;53.678;9.856;2023-08-01T08:53:20;9.85;;;3.72;;
52838;SDS011;39219;53.678;9.856;2023-08-01T08:55:47;10.25;;;3.63;;
52838;SDS011;39219;53.678;9.856;2023-08-01T08:58:14;7.28;;;3.38;;
52838;SDS011;39219;53.678;9.856;2023-08-01T09:00:41;5.60;;;3.08;;
52838;SDS011;39219;53.678;9.856;2023-08-01T09:03:08;8.00;;;3.35;;
52838;SDS011;39219;53.678;9.856;2023-08-01T09:05:37;7.05;;;3.28;;
52838;SDS011;39219;53.678;9.856;2023-08-01T09:08:04;6.18;;;3.00;;
52838;SDS011;39219;53.678;9.856;2023-08-01T09:10:32;4.50;;;3.10;;
52838;SDS011;39219;53.678;9.856;2023-08-01T09:12:59;5.65;;;3.75;;
52838;SDS011;39219;53.678;9.856;2023-08-01T09:15:26;6.00;;;3.20;;
52838;SDS011;39219;53.678;9.856;2023-08-01T09:17:54;6.18;;;3.10;;
52838;SDS011;39219;53.678;9.856;2023-08-01T09:20:25;6.22;;;3.38;;
52838;SDS011;39219;53.678;9.856;2023-08-01T09:22:53;6.13;;;3.40;;
52838;SDS011;39219;53.678;9.856;2023-08-01T09:25:19;6.85;;;3.80;;
52838;SDS011;39219;53.678;9.856;2023-08-01T09:27:45;8.88;;;3.90;;
52838;SDS011;39219;53.678;9.856;2023-08-01T09:30:12;8.23;;;3.60;;
52838;SDS011;39219;53.678;9.856;2023-08-01T09:32:50;8.52;;;4.40;;
52838;SDS011;39219;53.678;9.856;2023-08-01T09:35:17;8.18;;;3.85;;
52838;SDS011;39219;53.678;9.856;2023-08-01T09:37:43;6.25;;;3.78;;
52838;SDS011;39219;53.678;9.856;2023-08-01T09:40:11;7.00;;;3.72;;
52838;SDS011;39219;53.678;9.856;2023-08-01T09:42:38;4.85;;;3.08;;
52838;SDS011;39219;53.678;9.856;2023-08-01T09:45:06;5.47;;;3.30;;
52838;SDS011;39219;53.678;9.856;2023-08-01T09:47:35;8.00;;;3.47;;
52838;SDS011;39219;53.678;9.856;2023-08-01T09:50:02;5.18;;;3.15;;
52838;SDS011;39219;53.678;9.856;2023-08-01T09:52:28;7.25;;;3.30;;
52838;SDS011;39219;53.678;9.856;2023-08-01T09:54:55;8.68;;;3.08;;
52838;SDS011;39219;53.678;9.856;2023-08-01T09:57:23;4.82;;;2.65;;
52838;SDS011;39219;53.678;9.856;2023-08-01T09:59:53;4.57;;;2.42;;
52838;SDS011;39219;53.678;9.856;2023-08-01T10:02:20;3.63;;;2.45;;
52838;SDS011;39219;53.678;9.856;2023-08-01T10:04:49;4.05;;;2.20;;
52838;SDS011;39219;53.678;9.856;2023-08-01T10:07:18;4.53;;;2.28;;
52838;SDS011;39219;53.678;9.856;2023-08-01T10:09:46;3.13;;;2.15;;
52838;SDS011;39219;53.678;9.856;2023-08-01T10:12:13;4.13;;;2.38;;
52838;SDS011;39219;53.678;9.856;2023-08-01T10:14:41;4.47;;;2.45;;
52838;SDS011;39219;53.678;9.856;2023-08-01T10:17:07;3.30;;;2.25;;
52838;SDS011;39219;53.678;9.856;2023-08-01T10:19:34;4.20;;;1.77;;
52838;SDS011;39219;53.678;9.856;2023-08-01T10:22:01;4.28;;;2.00;;
52838;SDS011;39219;53.678;9.856;2023-08-01T10:24:28;3.75;;;1.92;;
52838;SDS011;39219;53.678;9.856;2023-08-01T10:26:55;3.75;;;1.92;;
52838;SDS011;39219;53.678;9.856;2023-08-01T10:29:21;4.30;;;2.38;;
52838;SDS011;39219;53.678;9.856;2023-08-01T10:31:52;4.22;;;1.65;;
52838;SDS011;39219;53.678;9.856;2023-08-01T10:34:19;2.70;;;1.80;;
52838;SDS011;39219;53.678;9.856;2023-08-01T10:36:53;3.75;;;1.90;;
52838;SDS011;39219;53.678;9.856;2023-08-01T10:39:20;4.25;;;1.83;;
52838;SDS011;39219;53.678;9.856;2023-08-01T10:41:47;3.08;;;1.52;;
52838;SDS011;39219;53.678;9.856;2023-08-01T10:44:22;4.25;;;1.90;;
52838;SDS011;39219;53.678;9.856;2023-08-01T10:46:49;3.22;;;1.98;;
52838;SDS011;39219;53.678;9.856;2023-08-01T10:49:18;3.72;;;1.80;;
52838;SDS011;39219;53.678;9.856;2023-08-01T10:51:45;2.92;;;1.05;;
52838;SDS011;39219;53.678;9.856;2023-08-01T10:54:18;1.00;;;0.73;;
52838;SDS011;39219;53.678;9.856;2023-08-01T10:56:44;1.90;;;0.90;;
52838;SDS011;39219;53.678;9.856;2023-08-01T10:59:11;2.25;;;0.82;;
52838;SDS011;39219;53.678;9.856;2023-08-01T11:01:42;3.05;;;0.90;;
52838;SDS011;39219;53.678;9.856;2023-08-01T11:04:13;1.55;;;0.98;;
52838;SDS011;39219;53.678;9.856;2023-08-01T11:06:43;3.33;;;1.10;;
52838;SDS011;39219;53.678;9.856;2023-08-01T11:09:14;2.03;;;1.10;;
52838;SDS011;39219;53.678;9.856;2023-08-01T11:11:41;1.00;;;0.85;;
52838;SDS011;39219;53.678;9.856;2023-08-01T11:14:07;1.67;;;1.10;;
52838;SDS011;39219;53.678;9.856;2023-08-01T11:16:33;2.13;;;0.90;;
52838;SDS011;39219;53.678;9.856;2023-08-01T11:19:00;2.08;;;0.70;;
52838;SDS011;39219;53.678;9.856;2023-08-01T11:21:27;2.22;;;0.93;;
52838;SDS011;39219;53.678;9.856;2023-08-01T11:23:54;0.88;;;0.50;;
52838;SDS011;39219;53.678;9.856;2023-08-01T11:26:22;1.40;;;0.70;;
52838;SDS011;39219;53.678;9.856;2023-08-01T11:28:48;1.02;;;0.68;;
52838;SDS011;39219;53.678;9.856;2023-08-01T11:31:14;1.17;;;0.60;;
52838;SDS011;39219;53.678;9.856;2023-08-01T11:33:41;2.15;;;0.75;;
52838;SDS011;39219;53.678;9.856;2023-08-01T11:36:07;2.70;;;0.60;;
52838;SDS011;39219;53.678;9.856;2023-08-01T11:38:34;2.47;;;0.80;;
52838;SDS011;39219;53.678;9.856;2023-08-01T11:41:03;1.00;;;0.60;;
52838;SDS011;39219;53.678;9.856;2023-08-01T11:43:37;1.33;;;0.80;;
52838;SDS011;39219;53.678;9.856;2023-08-01T11:46:03;3.35;;;0.82;;
52838;SDS011;39219;53.678;9.856;2023-08-01T11:48:31;2.85;;;0.98;;
52838;SDS011;39219;53.678;9.856;2023-08-01T11:50:57;1.55;;;0.63;;
52838;SDS011;39219;53.678;9.856;2023-08-01T11:53:24;2.17;;;0.90;;
52838;SDS011;39219;53.678;9.856;2023-08-01T11:55:50;3.33;;;0.90;;
52838;SDS011;39219;53.678;9.856;2023-08-01T11:58:28;1.90;;;0.88;;
52838;SDS011;39219;53.678;9.856;2023-08-01T12:01:01;1.85;;;0.90;;
52838;SDS011;39219;53.678;9.856;2023-08-01T12:03:28;2.60;;;0.85;;
52838;SDS011;39219;53.678;9.856;2023-08-01T12:06:01;2.00;;;0.60;;
52838;SDS011;39219;53.678;9.856;2023-08-01T12:08:31;1.50;;;0.80;;
52838;SDS011;39219;53.678;9.856;2023-08-01T12:10:58;1.42;;;0.80;;
52838;SDS011;39219;53.678;9.856;2023-08-01T12:13:24;0.73;;;0.60;;
52838;SDS011;39219;53.678;9.856;2023-08-01T12:15:53;1.27;;;0.73;;
52838;SDS011;39219;53.678;9.856;2023-08-01T12:18:21;1.52;;;0.90;;
52838;SDS011;39219;53.678;9.856;2023-08-01T12:20:47;1.90;;;1.00;;
52838;SDS011;39219;53.678;9.856;2023-08-01T12:23:14;2.60;;;1.10;;
52838;SDS011;39219;53.678;9.856;2023-08-01T12:25:40;1.70;;;1.00;;
52838;SDS011;39219;53.678;9.856;2023-08-01T12:28:06;2.55;;;0.90;;
52838;SDS011;39219;53.678;9.856;2023-08-01T12:30:33;2.13;;;1.10;;
52838;SDS011;39219;53.678;9.856;2023-08-01T12:33:00;4.63;;;1.27;;
52838;SDS011;39219;53.678;9.856;2023-08-01T12:35:27;4.97;;;1.20;;
52838;SDS011;39219;53.678;9.856;2023-08-01T12:37:53;1.45;;;0.90;;
52838;SDS011;39219;53.678;9.856;2023-08-01T12:40:20;0.98;;;0.93;;
52838;SDS011;39219;53.678;9.856;2023-08-01T12:42:46;1.35;;;0.95;;
52838;SDS011;39219;53.678;9.856;2023-08-01T12:45:13;1.60;;;1.00;;
52838;SDS011;39219;53.678;9.856;2023-08-01T12:47:39;1.65;;;0.90;;
52838;SDS011;39219;53.678;9.856;2023-08-01T12:50:08;3.05;;;1.30;;
52838;SDS011;39219;53.678;9.856;2023-08-01T12:52:34;2.78;;;1.10;;
52838;SDS011;39219;53.678;9.856;2023-08-01T12:55:00;1.48;;;1.00;;
52838;SDS011;39219;53.678;9.856;2023-08-01T12:57:27;0.85;;;0.70;;
52838;SDS011;39219;53.678;9.856;2023-08-01T12:59:53;1.23;;;0.70;;
52838;SDS011;39219;53.678;9.856;2023-08-01T13:02:19;2.65;;;1.35;;
52838;SDS011;39219;53.678;9.856;2023-08-01T13:04:45;1.05;;;0.73;;
52838;SDS011;39219;53.678;9.856;2023-08-01T13:07:13;1.95;;;1.25;;
52838;SDS011;39219;53.678;9.856;2023-08-01T13:09:39;0.60;;;0.50;;
52838;SDS011;39219;53.678;9.856;2023-08-01T13:12:06;1.23;;;0.60;;
52838;SDS011;39219;53.678;9.856;2023-08-01T13:14:32;3.20;;;0.80;;
52838;SDS011;39219;53.678;9.856;2023-08-01T13:16:59;1.65;;;0.77;;
52838;SDS011;39219;53.678;9.856;2023-08-01T13:19:25;2.20;;;1.10;;
52838;SDS011;39219;53.678;9.856;2023-08-01T13:21:51;1.77;;;0.93;;
52838;SDS011;39219;53.678;9.856;2023-08-01T13:24:19;1.48;;;1.15;;
52838;SDS011;39219;53.678;9.856;2023-08-01T13:26:45;2.35;;;0.95;;
52838;SDS011;39219;53.678;9.856;2023-08-01T13:29:11;1.88;;;1.17;;
52838;SDS011;39219;53.678;9.856;2023-08-01T13:31:38;3.15;;;1.20;;
52838;SDS011;39219;53.678;9.856;2023-08-01T13:34:04;1.83;;;1.00;;
52838;SDS011;39219;53.678;9.856;2023-08-01T13:36:30;3.00;;;1.23;;
52838;SDS011;39219;53.678;9.856;2023-08-01T13:38:57;1.80;;;1.00;;
52838;SDS011;39219;53.678;9.856;2023-08-01T13:41:25;3.72;;;1.30;;
52838;SDS011;39219;53.678;9.856;2023-08-01T13:43:51;4.07;;;1.48;;
52838;SDS011;39219;53.678;9.856;2023-08-01T13:46:18;4.18;;;1.50;;
52838;SDS011;39219;53.678;9.856;2023-08-01T13:48:44;2.45;;;1.40;;
52838;SDS011;39219;53.678;9.856;2023-08-01T13:51:11;3.72;;;1.50;;
52838;SDS011;39219;53.678;9.856;2023-08-01T13:53:37;1.83;;;1.20;;
52838;SDS011;39219;53.678;9.856;2023-08-01T13:56:06;1.67;;;1.00;;
52838;SDS011;39219;53.678;9.856;2023-08-01T13:58:33;2.38;;;1.40;;
52838;SDS011;39219;53.678;9.856;2023-08-01T14:01:01;1.15;;;1.05;;
52838;SDS011;39219;53.678;9.856;2023-08-01T14:03:27;3.13;;;1.35;;
52838;SDS011;39219;53.678;9.856;2023-08-01T14:05:54;2.17;;;0.90;;
52838;SDS011;39219;53.678;9.856;2023-08-01T14:08:21;4.28;;;1.52;;
52838;SDS011;39219;53.678;9.856;2023-08-01T14:10:47;1.20;;;0.95;;
52838;SDS011;39219;53.678;9.856;2023-08-01T14:13:13;1.20;;;1.00;;
52838;SDS011;39219;53.678;9.856;2023-08-01T14:15:41;2.70;;;1.48;;
52838;SDS011;39219;53.678;9.856;2023-08-01T14:18:07;1.40;;;1.17;;
52838;SDS011;39219;53.678;9.856;2023-08-01T14:20:34;2.53;;;1.30;;
52838;SDS011;39219;53.678;9.856;2023-08-01T14:23:01;4.68;;;1.30;;
52838;SDS011;39219;53.678;9.856;2023-08-01T14:25:27;2.13;;;1.40;;
52838;SDS011;39219;53.678;9.856;2023-08-01T14:27:53;2.55;;;1.08;;
52838;SDS011;39219;53.678;9.856;2023-08-01T14:30:19;2.45;;;1.08;;
52838;SDS011;39219;53.678;9.856;2023-08-01T14:32:47;3.25;;;1.17;;
52838;SDS011;39219;53.678;9.856;2023-08-01T14:35:13;1.65;;;0.73;;
52838;SDS011;39219;53.678;9.856;2023-08-01T14:37:40;1.90;;;0.90;;
52838;SDS011;39219;53.678;9.856;2023-08-01T14:40:10;2.70;;;1.02;;
52838;SDS011;39219;53.678;9.856;2023-08-01T14:42:36;3.72;;;1.00;;
52838;SDS011;39219;53.678;9.856;2023-08-01T14:45:03;3.58;;;0.93;;
52838;SDS011;39219;53.678;9.856;2023-08-01T14:47:30;2.67;;;1.17;;
52838;SDS011;39219;53.678;9.856;2023-08-01T14:50:00;3.95;;;1.55;;
52838;SDS011;39219;53.678;9.856;2023-08-01T14:52:27;2.33;;;1.20;;
52838;SDS011;39219;53.678;9.856;2023-08-01T14:54:53;4.78;;;1.42;;
52838;SDS011;39219;53.678;9.856;2023-08-01T14:57:19;2.65;;;1.05;;
52838;SDS011;39219;53.678;9.856;2023-08-01T14:59:45;1.48;;;1.10;;